Terminal Aerodrome Forecast
Issued by NWS Duluth, MN

Home | Current Version | Previous Version | Text Only | Print | Product List | Glossary On
Versions: 1 2 3 4 5 6 7 8 9 10 11 12 13 14 15 16 17 18 19
616
FTUS43 KDLH 250536
TAFDLH
TAF
KDLH 250536Z 2506/2606 VRB04KT P6SM BKN250
     FM250800 VRB04KT 5SM BR SCT005 SCT060 BKN200
     FM251400 16010KT P6SM VCSH SCT025 BKN090
     FM251800 18010KT P6SM SCT025 BKN100
     FM252000 19008KT P6SM BKN030 PROB30 2523/2604 6SM TSRA BKN015CB
     FM260400 20004KT 4SM BR BKN010=

USA.gov is the U.S. government's official web portal to all federal, state and local government web resources and services.